Time,TemperatureF,DewpointF,PressureIn,WindDirection,WindDirectionDegrees,WindSpeedMPH,WindSpeedGustMPH,Humidity,HourlyPrecipIn,Conditions,Clouds,dailyrainin,SoftwareType,DateUTC
2013-06-26 00:05:00,64.9,64.3,29.77,NW,315,0.0,-999.0,98,-99.99,,,0.00,Acu-Link.com,2013-06-26 07:05:00,
2013-06-26 00:20:00,64.8,63.6,29.78,ESE,112,0.0,-999.0,96,-99.99,,,0.00,Acu-Link.com,2013-06-26 07:20:00,
2013-06-26 00:35:00,64.0,63.4,29.77,NNE,22,0.0,-999.0,98,-99.99,,,0.00,Acu-Link.com,2013-06-26 07:35:00,
2013-06-26 00:50:00,63.7,63.1,29.77,South,180,0.0,-999.0,98,-99.99,,,0.00,Acu-Link.com,2013-06-26 07:50:00,
2013-06-26 01:06:00,63.5,62.9,29.77,South,180,0.0,-999.0,98,-99.99,,,0.00,Acu-Link.com,2013-06-26 08:06:00,
2013-06-26 01:22:00,63.1,62.5,29.78,South,180,0.0,-999.0,98,-99.99,,,0.00,Acu-Link.com,2013-06-26 08:22:00,
2013-06-26 01:37:00,63.0,62.4,29.78,SW,225,0.0,-999.0,98,-99.99,,,0.00,Acu-Link.com,2013-06-26 08:37:00,
2013-06-26 01:52:00,62.2,61.6,29.78,ENE,67,0.0,-999.0,98,-99.99,,,0.00,Acu-Link.com,2013-06-26 08:52:00,
2013-06-26 02:07:00,62.2,61.6,29.78,East,90,0.0,-999.0,98,-99.99,,,0.00,Acu-Link.com,2013-06-26 09:07:00,
2013-06-26 02:22:00,62.4,61.8,29.78,ENE,67,0.0,-999.0,98,-99.99,,,0.00,Acu-Link.com,2013-06-26 09:22:00,
2013-06-26 02:37:00,61.9,61.3,29.78,SW,225,0.0,-999.0,98,-99.99,,,0.00,Acu-Link.com,2013-06-26 09:37:00,
2013-06-26 02:53:00,61.5,60.9,29.79,SW,225,0.0,-999.0,98,-99.99,,,0.00,Acu-Link.com,2013-06-26 09:53:00,
2013-06-26 03:08:00,60.8,60.2,29.79,SW,225,0.0,-999.0,98,-99.99,,,0.00,Acu-Link.com,2013-06-26 10:08:00,
2013-06-26 03:23:00,60.8,56.6,29.79,South,180,0.0,-999.0,86,-99.99,,,0.00,Acu-Link.com,2013-06-26 10:23:00,
2013-06-26 03:38:00,61.0,60.4,29.79,WSW,247,3.7,-999.0,98,-99.99,,,0.00,Acu-Link.com,2013-06-26 10:38:00,
2013-06-26 03:53:00,60.6,60.0,29.79,SSW,202,2.2,-999.0,98,-99.99,,,0.00,Acu-Link.com,2013-06-26 10:53:00,
2013-06-26 04:08:00,61.5,60.9,29.79,SW,225,0.0,-999.0,98,-99.99,,,0.00,Acu-Link.com,2013-06-26 11:08:00,
2013-06-26 04:23:00,61.5,60.9,29.80,NNW,337,1.1,-999.0,98,-99.99,,,0.00,Acu-Link.com,2013-06-26 11:23:00,
2013-06-26 04:38:00,61.3,60.7,29.80,WNW,292,0.0,-999.0,98,-99.99,,,0.00,Acu-Link.com,2013-06-26 11:38:00,
2013-06-26 04:54:00,61.2,60.6,29.80,West,270,0.0,-999.0,98,-99.99,,,0.00,Acu-Link.com,2013-06-26 11:54:00,
2013-06-26 05:09:00,61.2,60.6,29.81,SSW,202,0.0,-999.0,98,-99.99,,,0.00,Acu-Link.com,2013-06-26 12:09:00,
2013-06-26 05:24:00,60.6,60.0,29.81,SSW,202,0.0,-999.0,98,-99.99,,,0.00,Acu-Link.com,2013-06-26 12:24:00,
2013-06-26 05:39:00,60.4,58.1,29.81,East,90,0.0,-999.0,92,-99.99,,,0.00,Acu-Link.com,2013-06-26 12:39:00,
2013-06-26 05:54:00,60.3,59.7,29.82,ESE,112,0.0,-999.0,98,-99.99,,,0.00,Acu-Link.com,2013-06-26 12:54:00,
2013-06-26 06:09:00,60.3,59.7,29.82,ESE,112,0.0,-999.0,98,-99.99,,,0.00,Acu-Link.com,2013-06-26 13:09:00,
2013-06-26 06:24:00,62.4,61.8,29.82,SE,135,0.0,-999.0,98,-99.99,,,0.00,Acu-Link.com,2013-06-26 13:24:00,
2013-06-26 06:40:00,65.5,64.9,29.81,NE,45,0.0,-999.0,98,-99.99,,,0.00,Acu-Link.com,2013-06-26 13:40:00,
2013-06-26 06:55:00,68.4,67.8,29.81,ESE,112,1.1,-999.0,98,-99.99,,,0.00,Acu-Link.com,2013-06-26 13:55:00,
2013-06-26 07:10:00,71.2,70.6,29.81,NNE,22,0.0,-999.0,98,-99.99,,,0.00,Acu-Link.com,2013-06-26 14:10:00,
2013-06-26 07:25:00,72.5,71.9,29.81,West,270,1.7,-999.0,98,-99.99,,,0.00,Acu-Link.com,2013-06-26 14:25:00,
2013-06-26 07:40:00,74.3,-32.2,29.82,SW,225,1.7,-999.0,1,-99.99,,,0.00,Acu-Link.com,2013-06-26 14:40:00,
2013-06-26 07:55:00,76.3,75.7,29.82,SW,225,1.7,-999.0,98,-99.99,,,0.00,Acu-Link.com,2013-06-26 14:55:00,
2013-06-26 08:10:00,78.3,-29.9,29.83,WSW,247,1.1,-999.0,1,-99.99,,,0.00,Acu-Link.com,2013-06-26 15:10:00,
2013-06-26 08:25:00,80.2,-28.7,29.83,SE,135,0.0,-999.0,1,-99.99,,,0.00,Acu-Link.com,2013-06-26 15:25:00,
2013-06-26 08:40:00,81.7,-27.8,29.83,NW,315,1.7,-999.0,1,-99.99,,,0.00,Acu-Link.com,2013-06-26 15:40:00,
2013-06-26 08:56:00,82.6,-27.3,29.83,SSE,157,1.7,-999.0,1,-99.99,,,0.00,Acu-Link.com,2013-06-26 15:56:00,
2013-06-26 09:11:00,83.7,-26.6,29.83,NE,45,1.7,-999.0,1,-99.99,,,0.00,Acu-Link.com,2013-06-26 16:11:00,
2013-06-26 09:26:00,84.6,-26.1,29.82,NW,315,0.0,-999.0,1,-99.99,,,0.00,Acu-Link.com,2013-06-26 16:26:00,
2013-06-26 09:41:00,84.7,-26.1,29.83,NNW,337,1.7,-999.0,1,-99.99,,,0.00,Acu-Link.com,2013-06-26 16:41:00,
2013-06-26 09:56:00,86.0,-25.3,29.83,SSW,202,2.7,-999.0,1,-99.99,,,0.00,Acu-Link.com,2013-06-26 16:56:00,
2013-06-26 10:11:00,86.7,-24.9,29.83,SE,135,1.7,-999.0,1,-99.99,,,0.00,Acu-Link.com,2013-06-26 17:11:00,
2013-06-26 10:26:00,87.6,-24.3,29.83,NNW,337,1.7,-999.0,1,-99.99,,,0.00,Acu-Link.com,2013-06-26 17:26:00,
2013-06-26 10:41:00,90.0,70.0,29.84,North,0,1.1,-999.0,52,-99.99,,,0.00,Acu-Link.com,2013-06-26 17:41:00,
2013-06-26 10:56:00,89.6,-23.2,29.84,NW,315,2.7,-999.0,1,-99.99,,,0.00,Acu-Link.com,2013-06-26 17:56:00,
2013-06-26 11:12:00,90.3,-9.2,29.83,ESE,112,3.7,-999.0,2,-99.99,,,0.00,Acu-Link.com,2013-06-26 18:12:00,
2013-06-26 11:27:00,90.9,14.8,29.82,West,270,2.7,-999.0,6,-99.99,,,0.00,Acu-Link.com,2013-06-26 18:27:00,
2013-06-26 11:42:00,91.4,-8.5,29.82,East,90,2.2,-999.0,2,-99.99,,,0.00,Acu-Link.com,2013-06-26 18:42:00,
2013-06-26 11:57:00,91.0,74.6,29.82,West,270,2.7,-999.0,59,-99.99,,,0.00,Acu-Link.com,2013-06-26 18:57:00,
2013-06-26 12:12:00,92.5,22.6,29.82,West,270,1.7,-999.0,8,-99.99,,,0.00,Acu-Link.com,2013-06-26 19:12:00,
2013-06-26 12:27:00,92.5,-21.4,29.83,West,270,2.2,-999.0,1,-99.99,,,0.00,Acu-Link.com,2013-06-26 19:27:00,
2013-06-26 12:43:00,93.2,38.6,29.82,South,180,3.7,-999.0,15,-99.99,,,0.00,Acu-Link.com,2013-06-26 19:43:00,
2013-06-26 12:58:00,91.9,-21.8,29.81,WNW,292,5.3,-999.0,1,-99.99,,,0.00,Acu-Link.com,2013-06-26 19:58:00,
2013-06-26 13:13:00,92.5,84.2,29.81,SSE,157,3.2,-999.0,77,-99.99,,,0.00,Acu-Link.com,2013-06-26 20:13:00,
2013-06-26 13:28:00,92.8,34.7,29.80,SW,225,4.2,-999.0,13,-99.99,,,0.00,Acu-Link.com,2013-06-26 20:28:00,
2013-06-26 13:43:00,93.6,49.0,29.79,SSE,157,5.3,-999.0,22,-99.99,,,0.00,Acu-Link.com,2013-06-26 20:43:00,
2013-06-26 13:58:00,94.5,37.9,29.81,SSW,202,2.7,-999.0,14,-99.99,,,0.00,Acu-Link.com,2013-06-26 20:58:00,
2013-06-26 14:13:00,94.3,82.1,29.80,SW,225,5.8,-999.0,68,-99.99,,,0.00,Acu-Link.com,2013-06-26 21:13:00,
2013-06-26 14:28:00,92.7,90.7,29.79,SW,225,4.7,-999.0,94,-99.99,,,0.00,Acu-Link.com,2013-06-26 21:28:00,
2013-06-26 14:43:00,91.6,37.4,29.80,SW,225,6.8,-999.0,15,-99.99,,,0.00,Acu-Link.com,2013-06-26 21:43:00,
2013-06-26 14:59:00,90.5,66.9,29.79,West,270,3.7,-999.0,46,-99.99,,,0.00,Acu-Link.com,2013-06-26 21:59:00,
2013-06-26 15:14:00,91.2,69.9,29.80,SW,225,5.8,-999.0,50,-99.99,,,0.00,Acu-Link.com,2013-06-26 22:14:00,
2013-06-26 15:29:00,90.5,89.5,29.79,South,180,5.8,-999.0,97,-99.99,,,0.00,Acu-Link.com,2013-06-26 22:29:00,
2013-06-26 15:44:00,89.2,80.6,29.78,West,270,5.3,-999.0,76,-99.99,,,0.00,Acu-Link.com,2013-06-26 22:44:00,
2013-06-26 15:59:00,91.4,74.0,29.78,West,270,1.7,-999.0,57,-99.99,,,0.00,Acu-Link.com,2013-06-26 22:59:00,
2013-06-26 16:14:00,90.5,80.2,29.78,SSW,202,2.7,-999.0,72,-99.99,,,0.00,Acu-Link.com,2013-06-26 23:14:00,
2013-06-26 16:29:00,91.0,90.0,29.77,SSE,157,4.7,-999.0,97,-99.99,,,0.00,Acu-Link.com,2013-06-26 23:29:00,
2013-06-26 16:45:00,91.0,88.0,29.78,WSW,247,5.3,-999.0,91,-99.99,,,0.00,Acu-Link.com,2013-06-26 23:45:00,
2013-06-26 17:00:00,90.7,74.9,29.78,WSW,247,4.2,-999.0,60,-99.99,,,0.00,Acu-Link.com,2013-06-27 00:00:00,
2013-06-26 17:15:00,91.0,90.4,29.77,WSW,247,3.7,-999.0,98,-99.99,,,0.00,Acu-Link.com,2013-06-27 00:15:00,
2013-06-26 17:30:00,90.1,69.5,29.77,SSW,202,2.7,-999.0,51,-99.99,,,0.00,Acu-Link.com,2013-06-27 00:30:00,
2013-06-26 17:45:00,89.2,88.6,29.76,NW,315,2.7,-999.0,98,-99.99,,,0.00,Acu-Link.com,2013-06-27 00:45:00,
2013-06-26 18:00:00,88.9,84.2,29.76,South,180,2.2,-999.0,86,-99.99,,,0.00,Acu-Link.com,2013-06-27 01:00:00,
2013-06-26 18:15:00,89.6,89.0,29.76,West,270,2.2,-999.0,98,-99.99,,,0.00,Acu-Link.com,2013-06-27 01:15:00,
2013-06-26 18:30:00,87.6,87.0,29.76,SW,225,3.7,-999.0,98,-99.99,,,0.00,Acu-Link.com,2013-06-27 01:30:00,
2013-06-26 18:45:00,85.8,83.5,29.76,South,180,2.2,-999.0,93,-99.99,,,0.00,Acu-Link.com,2013-06-27 01:45:00,
2013-06-26 19:01:00,85.5,84.9,29.77,West,270,4.7,-999.0,98,-99.99,,,0.00,Acu-Link.com,2013-06-27 02:01:00,
2013-06-26 19:16:00,83.7,82.1,29.76,SW,225,3.2,-999.0,95,-99.99,,,0.00,Acu-Link.com,2013-06-27 02:16:00,
2013-06-26 19:31:00,80.4,67.5,29.76,SW,225,1.1,-999.0,65,-99.99,,,0.00,Acu-Link.com,2013-06-27 02:31:00,
2013-06-26 19:46:00,78.6,64.9,29.76,West,270,0.0,-999.0,63,-99.99,,,0.00,Acu-Link.com,2013-06-27 02:46:00,
2013-06-26 20:01:00,76.3,-31.0,29.76,SW,225,0.0,-999.0,1,-99.99,,,0.00,Acu-Link.com,2013-06-27 03:01:00,
2013-06-26 20:16:00,75.0,66.5,29.76,SSW,202,1.1,-999.0,75,-99.99,,,0.00,Acu-Link.com,2013-06-27 03:16:00,
2013-06-26 20:31:00,74.3,53.9,29.76,SW,225,0.0,-999.0,49,-99.99,,,0.00,Acu-Link.com,2013-06-27 03:31:00,
2013-06-26 20:46:00,73.4,72.5,29.77,WNW,292,0.0,-999.0,97,-99.99,,,0.00,Acu-Link.com,2013-06-27 03:46:00,
2013-06-26 21:01:00,72.7,72.1,29.77,WNW,292,0.0,-999.0,98,-99.99,,,0.00,Acu-Link.com,2013-06-27 04:01:00,
2013-06-26 21:17:00,71.8,71.2,29.77,WNW,292,0.0,-999.0,98,-99.99,,,0.00,Acu-Link.com,2013-06-27 04:17:00,
2013-06-26 21:32:00,71.4,70.8,29.78,NE,45,0.0,-999.0,98,-99.99,,,0.00,Acu-Link.com,2013-06-27 04:32:00,
2013-06-26 21:47:00,71.4,70.8,29.78,SW,225,0.0,-999.0,98,-99.99,,,0.00,Acu-Link.com,2013-06-27 04:47:00,
2013-06-26 22:02:00,71.1,70.5,29.78,SW,225,0.0,-999.0,98,-99.99,,,0.00,Acu-Link.com,2013-06-27 05:02:00,
2013-06-26 22:17:00,70.5,69.9,29.79,SW,225,0.0,-999.0,98,-99.99,,,0.00,Acu-Link.com,2013-06-27 05:17:00,
2013-06-26 22:32:00,70.2,69.6,29.78,SW,225,0.0,-999.0,98,-99.99,,,0.00,Acu-Link.com,2013-06-27 05:32:00,
2013-06-26 22:47:00,69.4,68.8,29.78,SSW,202,0.0,-999.0,98,-99.99,,,0.00,Acu-Link.com,2013-06-27 05:47:00,
2013-06-26 23:02:00,68.9,68.3,29.78,ENE,67,1.7,-999.0,98,-99.99,,,0.00,Acu-Link.com,2013-06-27 06:02:00,
2013-06-26 23:17:00,69.3,68.7,29.79,SW,225,0.0,-999.0,98,-99.99,,,0.00,Acu-Link.com,2013-06-27 06:17:00,
2013-06-26 23:33:00,69.6,69.0,29.80,SW,225,0.0,-999.0,98,-99.99,,,0.00,Acu-Link.com,2013-06-27 06:33:00,
2013-06-26 23:48:00,69.3,68.7,29.79,SSW,202,0.0,-999.0,98,-99.99,,,0.00,Acu-Link.com,2013-06-27 06:48:00,